Change the Weather History Date:

Friday, May 24, 2013

  Actual Average Record
Temperature  
Mean Temperature 47 °F -  
Max Temperature 59 °F 72 °F 89 °F (1975)
Min Temperature 35 °F 48 °F 33 °F (1963)
Degree Days  
Heating Degree Days 18    
Moisture  
Dew Point 36 °F    
Average Humidity 70    
Maximum Humidity 91    
Minimum Humidity 39    
Precipitation  
Precipitation 0.00 in - - ()
Sea Level Pressure  
Sea Level Pressure 30.31 in    
Wind  
Wind Speed 8 mph (North)    
Max Wind Speed 13 mph    
Max Gust Speed 22 mph    
Visibility 10 miles    
Events      
Averages and records for this station are not official NWS values.
T = Trace of Precipitation, MM = Missing Value Source: NWS Daily Summary

Daily Weather History Graph

Daily Weather History Graph

Search for Another Location

Airport or City:

Trip Planner

Search our weather history database for the weather conditions in past years. The results will help you decide how hot, cold, wet, or windy it might be!

Date:

Astronomy

May. 24, 2013 Rise Set
Actual Time 6:06 AM EDT 9:05 PM EDT
Civil Twilight 5:32 AM EDT 9:39 PM EDT
Nautical Twilight 4:49 AM EDT 10:23 PM EDT
Astronomical Twilight 3:58 AM EDT 11:14 PM EDT
Moon 8:45 PM EDT (5/24) 5:39 AM EDT (5/24)
Length of Visible Light 16h 07m
Length of Day
14h 59m
Full, 100% of the Moon is Illuminated
May 24
Full
May 25
Full
May 31
Last Quarter
Jun 8
New
Jun 16
First Quarter

Hourly Weather History & Observations

Time (EDT) Temp. Windchill Dew Point Humidity Pressure Visibility Wind Dir Wind Speed Gust Speed Precip Events Conditions
12:14 AM 41.0 °F 34.7 °F 35.6 °F 81% 30.21 in 10.0 mi NNW 10.4 mph 17.3 mph N/A   Clear
12:34 AM 40.5 °F 34.6 °F 35.6 °F 83% 30.21 in 10.0 mi NNW 9.2 mph - N/A   Clear
12:54 AM 39.9 °F 34.5 °F 35.6 °F 85% 30.21 in 10.0 mi NNW 8.1 mph - N/A   Clear
1:14 AM 39.9 °F 34.5 °F 35.6 °F 85% 30.22 in 10.0 mi NNW 8.1 mph - N/A   Clear
1:33 AM 39.7 °F 34.3 °F 35.4 °F 85% 30.22 in 10.0 mi NNW 8.1 mph 16.1 mph N/A   Clear
1:54 AM 39.6 °F 33.0 °F 35.1 °F 84% 30.22 in 10.0 mi NNW 10.4 mph 17.3 mph N/A   Clear
2:13 AM 39.2 °F 31.6 °F 34.9 °F 84% 30.23 in 10.0 mi North 12.7 mph 18.4 mph N/A   Clear
2:33 AM 39.2 °F 31.6 °F 34.7 °F 84% 30.23 in 10.0 mi North 12.7 mph 17.3 mph N/A   Clear
2:54 AM 38.5 °F 31.6 °F 34.7 °F 86% 30.23 in 10.0 mi North 10.4 mph 16.1 mph N/A   Clear
3:14 AM 39.2 °F 32.0 °F 34.7 °F 84% 30.24 in 10.0 mi North 11.5 mph - N/A   Clear
3:34 AM 38.5 °F 30.7 °F 34.7 °F 86% 30.25 in 10.0 mi North 12.7 mph - N/A   Clear
3:53 AM 38.3 °F 30.9 °F 34.7 °F 87% 30.26 in 10.0 mi North 11.5 mph - N/A   Clear
4:14 AM 38.3 °F 30.9 °F 34.7 °F 87% 30.26 in 10.0 mi North 11.5 mph - N/A   Clear
4:33 AM 37.9 °F 32.1 °F 34.7 °F 88% 30.27 in 10.0 mi North 8.1 mph - N/A   Clear
4:54 AM 37.6 °F 31.6 °F 34.3 °F 88% 30.27 in 10.0 mi North 8.1 mph - N/A   Clear
5:13 AM 37.0 °F 31.0 °F 34.2 °F 89% 30.28 in 10.0 mi North 8.1 mph - N/A   Clear
5:34 AM 36.7 °F 30.5 °F 34.0 °F 90% 30.28 in 10.0 mi North 8.1 mph - N/A   Clear
5:53 AM 36.5 °F 31.0 °F 34.0 °F 91% 30.28 in 10.0 mi North 6.9 mph - N/A   Clear
6:14 AM 36.0 °F 30.3 °F 33.4 °F 91% 30.29 in 10.0 mi North 6.9 mph - N/A   Clear
6:34 AM 35.8 °F 30.1 °F 33.4 °F 91% 30.30 in 10.0 mi North 6.9 mph - N/A   Clear
6:53 AM 36.7 °F 30.5 °F 34.0 °F 90% 30.31 in 10.0 mi North 8.1 mph - N/A   Clear
7:14 AM 37.4 °F 32.1 °F 34.0 °F 87% 30.32 in 10.0 mi North 6.9 mph - N/A   Clear
7:34 AM 38.7 °F 32.9 °F 33.3 °F 81% 30.33 in 10.0 mi North 8.1 mph - N/A   Clear
7:53 AM 39.4 °F 33.2 °F 33.1 °F 78% 30.33 in 10.0 mi North 9.2 mph 20.7 mph N/A   Clear
8:14 AM 40.1 °F 33.6 °F 32.7 °F 75% 30.34 in 10.0 mi NNE 10.4 mph 19.6 mph N/A   Clear
8:34 AM 40.6 °F 35.4 °F 32.2 °F 72% 30.35 in 10.0 mi North 8.1 mph 19.6 mph N/A   Scattered Clouds
8:53 AM 41.0 °F 33.9 °F 32.2 °F 71% 30.36 in 10.0 mi North 12.7 mph 21.9 mph N/A   Scattered Clouds
9:14 AM 40.5 °F 35.1 °F 32.5 °F 73% 30.36 in 10.0 mi North 8.1 mph 20.7 mph N/A   Scattered Clouds
9:33 AM 42.8 °F 37.0 °F 34.0 °F 71% 30.36 in 10.0 mi North 10.4 mph - N/A   Mostly Cloudy
9:54 AM 43.5 °F 37.9 °F 33.8 °F 69% 30.37 in 10.0 mi NNE 10.4 mph 18.4 mph N/A   Mostly Cloudy
10:13 AM 42.8 °F 36.2 °F 33.1 °F 69% 30.37 in 10.0 mi NNW 12.7 mph 20.7 mph N/A   Overcast
10:34 AM 42.8 °F 38.0 °F 34.0 °F 71% 30.38 in 10.0 mi North 8.1 mph - N/A   Mostly Cloudy
10:54 AM 43.7 °F 38.1 °F 34.2 °F 69% 30.37 in 10.0 mi NW 10.4 mph 16.1 mph N/A   Overcast
11:14 AM 45.7 °F 41.5 °F 34.9 °F 66% 30.38 in 10.0 mi North 8.1 mph 16.1 mph N/A   Mostly Cloudy
11:34 AM 46.2 °F 41.7 °F 35.1 °F 65% 30.38 in 10.0 mi North 9.2 mph - N/A   Scattered Clouds
11:54 AM 46.2 °F - 34.7 °F 64% 30.38 in 10.0 mi North - - N/A   Scattered Clouds
12:14 PM 46.0 °F 43.9 °F 33.3 °F 61% 30.38 in 10.0 mi NNE 4.6 mph 17.3 mph N/A   Scattered Clouds
12:34 PM 47.8 °F - 35.6 °F 63% 30.38 in 10.0 mi North 11.5 mph - N/A   Scattered Clouds
12:53 PM 48.2 °F - 33.8 °F 58% 30.38 in 10.0 mi Calm Calm - N/A   Scattered Clouds
1:14 PM 49.1 °F - 35.1 °F 58% 30.38 in 10.0 mi North 8.1 mph - N/A   Scattered Clouds
1:34 PM 48.7 °F - 34.9 °F 59% 30.38 in 10.0 mi NNE 8.1 mph - N/A   Mostly Cloudy
1:54 PM 51.1 °F - 36.0 °F 56% 30.38 in 10.0 mi NW 5.8 mph - N/A   Mostly Cloudy
2:14 PM 51.8 °F - 36.1 °F 55% 30.37 in 10.0 mi North 3.5 mph 16.1 mph N/A   Scattered Clouds
2:34 PM 52.7 °F - 36.3 °F 54% 30.36 in 10.0 mi NNW 3.5 mph 17.3 mph N/A   Clear
2:54 PM 54.5 °F - 37.6 °F 53% 30.36 in 10.0 mi NNW 4.6 mph 18.4 mph N/A   Clear
3:13 PM 54.7 °F - 36.1 °F 50% 30.36 in 10.0 mi Calm Calm - N/A   Scattered Clouds
3:34 PM 55.4 °F - 37.9 °F 52% 30.36 in 10.0 mi North 8.1 mph - N/A   Scattered Clouds
3:54 PM 56.3 °F - 37.4 °F 49% 30.35 in 10.0 mi NNW 3.5 mph 19.6 mph N/A   Scattered Clouds
4:14 PM 56.7 °F - 36.5 °F 47% 30.34 in 10.0 mi NW 3.5 mph - N/A   Clear
4:34 PM 56.5 °F - 36.1 °F 47% 30.34 in 10.0 mi Calm Calm - N/A   Clear
4:54 PM 58.1 °F - 37.2 °F 46% 30.34 in 10.0 mi SW 3.5 mph - N/A   Clear
5:14 PM 58.3 °F - 34.7 °F 41% 30.33 in 10.0 mi North - - N/A   Clear
5:34 PM 58.3 °F - 35.4 °F 42% 30.33 in 10.0 mi NNW 5.8 mph - N/A   Clear
5:54 PM 59.0 °F - 34.5 °F 40% 30.32 in 10.0 mi WNW 6.9 mph - N/A   Clear
6:14 PM 58.5 °F - 35.2 °F 42% 30.32 in 10.0 mi Calm Calm - N/A   Clear
6:34 PM 58.3 °F - 34.0 °F 40% 30.31 in 10.0 mi ENE 4.6 mph - N/A   Clear
6:54 PM 58.6 °F - 33.8 °F 39% 30.30 in 10.0 mi NNW 4.6 mph - N/A   Clear
7:14 PM 59.0 °F - 35.8 °F 42% 30.30 in 10.0 mi Calm Calm - N/A   Clear
7:34 PM 58.3 °F - 34.9 °F 41% 30.29 in 10.0 mi Calm Calm - N/A   Clear
7:54 PM 58.1 °F - 36.7 °F 45% 30.29 in 10.0 mi North - - N/A   Clear
8:14 PM 57.7 °F - 35.8 °F 44% 30.29 in 10.0 mi Calm Calm - N/A   Clear
8:34 PM 56.5 °F - 40.5 °F 55% 30.28 in 10.0 mi Calm Calm - N/A   Clear
8:54 PM 52.5 °F - 46.4 °F 80% 30.28 in 10.0 mi Calm Calm - N/A   Clear
9:14 PM 51.1 °F - 45.3 °F 81% 30.28 in 10.0 mi Calm Calm - N/A   Clear
9:34 PM 48.6 °F - 44.2 °F 85% 30.28 in 10.0 mi Calm Calm - N/A   Clear
9:54 PM 47.1 °F - 44.6 °F 91% 30.30 in 10.0 mi Calm Calm - N/A   Clear
10:14 PM 48.2 °F - 42.6 °F 81% 30.31 in 10.0 mi Calm Calm - N/A   Clear
10:34 PM 45.3 °F 43.0 °F 42.1 °F 88% 30.32 in 10.0 mi North 4.6 mph - N/A   Clear
10:54 PM 47.3 °F - 43.9 °F 88% 30.33 in 10.0 mi NE 5.8 mph - N/A   Clear
11:14 PM 46.4 °F 43.5 °F 43.2 °F 88% 30.34 in 10.0 mi NE 5.8 mph - N/A   Clear
11:34 PM 45.7 °F 42.7 °F 42.4 °F 88% 30.34 in 10.0 mi NNE 5.8 mph - N/A   Clear
11:54 PM 44.4 °F 39.5 °F 41.2 °F 88% 30.35 in 10.0 mi NNE 9.2 mph - N/A   Clear